EWG3K EDDL-EDDH
Flight info
| Callsign | EWG3K |
|---|---|
| Flight time | 0h 33m |
| Altitude | 31000 |
| Route | MEVEL1Z/05R MEVEL Y850 BASUM/N0412F300 Y850 PIXUR/N0408F290 Y850 MUBZI M105 RIBSO RIBSO7A |
| Aircraft | A320/M-SDE3FGHIRWY/LB1 |
Departure
| Time | 2026-05-07 16:15 |
|---|---|
| Airport | Düsseldorf Airport (EDDL) |
Arrival
| Time | 2026-05-07 16:48 |
|---|---|
| Airport | Hamburg Helmut Schmidt Airport (EDDH) |
| Time | Latitude | Longitude | Altitude | Speed | Heading |
|---|---|---|---|---|---|
| 2026-05-07 16:15 | 51.38562 | 6.92002 | 5939 ft | 264 kts | 38° |
| 2026-05-07 16:15 | 51.39260 | 6.92889 | 6375 ft | 266 kts | 37° |
| 2026-05-07 16:15 | 51.41580 | 6.95855 | 7735 ft | 274 kts | 38° |
| 2026-05-07 16:16 | 51.42855 | 6.97509 | 8487 ft | 280 kts | 38° |
| 2026-05-07 16:16 | 51.44456 | 6.99596 | 9475 ft | 288 kts | 38° |
| 2026-05-07 16:16 | 51.46089 | 7.01723 | 10280 ft | 297 kts | 38° |
| 2026-05-07 16:16 | 51.47839 | 7.03999 | 10606 ft | 321 kts | 38° |
| 2026-05-07 16:17 | 51.49729 | 7.06460 | 11109 ft | 336 kts | 38° |
| 2026-05-07 16:17 | 51.51415 | 7.08659 | 11784 ft | 340 kts | 38° |
| 2026-05-07 16:17 | 51.53272 | 7.11078 | 12543 ft | 345 kts | 38° |
| 2026-05-07 16:17 | 51.55166 | 7.13543 | 13296 ft | 349 kts | 38° |
| 2026-05-07 16:18 | 51.57129 | 7.16102 | 14051 ft | 353 kts | 38° |
| 2026-05-07 16:18 | 51.59018 | 7.18570 | 14700 ft | 357 kts | 38° |
| 2026-05-07 16:18 | 51.60300 | 7.20249 | 15134 ft | 359 kts | 38° |
| 2026-05-07 16:18 | 51.62920 | 7.23658 | 16026 ft | 363 kts | 37° |
| 2026-05-07 16:19 | 51.64926 | 7.26149 | 16667 ft | 366 kts | 36° |
| 2026-05-07 16:19 | 51.66974 | 7.28624 | 17291 ft | 371 kts | 36° |
| 2026-05-07 16:19 | 51.69076 | 7.31136 | 17912 ft | 375 kts | 35° |
| 2026-05-07 16:19 | 51.71154 | 7.33623 | 18514 ft | 379 kts | 35° |
| 2026-05-07 16:20 | 51.73306 | 7.36210 | 19054 ft | 382 kts | 36° |
| 2026-05-07 16:20 | 51.75441 | 7.38793 | 19620 ft | 385 kts | 36° |
| 2026-05-07 16:20 | 51.77590 | 7.41411 | 20156 ft | 389 kts | 36° |
| 2026-05-07 16:20 | 51.79761 | 7.44068 | 20703 ft | 392 kts | 36° |
| 2026-05-07 16:21 | 51.81933 | 7.46723 | 21243 ft | 394 kts | 36° |
| 2026-05-07 16:21 | 51.84129 | 7.49409 | 21785 ft | 397 kts | 36° |
| 2026-05-07 16:21 | 51.86336 | 7.52118 | 22305 ft | 400 kts | 36° |
| 2026-05-07 16:21 | 51.88620 | 7.54920 | 22824 ft | 403 kts | 36° |
| 2026-05-07 16:22 | 51.90806 | 7.57603 | 23313 ft | 406 kts | 37° |
| 2026-05-07 16:22 | 51.93064 | 7.60383 | 23770 ft | 409 kts | 37° |
| 2026-05-07 16:22 | 51.95335 | 7.63182 | 24192 ft | 411 kts | 37° |
| 2026-05-07 16:22 | 51.97630 | 7.66011 | 24613 ft | 414 kts | 37° |
| 2026-05-07 16:23 | 51.99915 | 7.68836 | 25033 ft | 416 kts | 37° |
| 2026-05-07 16:23 | 52.02221 | 7.71697 | 25439 ft | 418 kts | 37° |
| 2026-05-07 16:23 | 52.04535 | 7.74571 | 25884 ft | 420 kts | 37° |
| 2026-05-07 16:23 | 52.06867 | 7.77471 | 26277 ft | 422 kts | 37° |
| 2026-05-07 16:24 | 52.09198 | 7.80372 | 26678 ft | 424 kts | 37° |
| 2026-05-07 16:24 | 52.11545 | 7.83294 | 27008 ft | 426 kts | 36° |
| 2026-05-07 16:24 | 52.13893 | 7.86219 | 27102 ft | 418 kts | 37° |
| 2026-05-07 16:24 | 52.16158 | 7.89046 | 27107 ft | 406 kts | 37° |
| 2026-05-07 16:25 | 52.18393 | 7.91835 | 27104 ft | 403 kts | 37° |
| 2026-05-07 16:25 | 52.20613 | 7.94607 | 27104 ft | 402 kts | 36° |
| 2026-05-07 16:25 | 52.22832 | 7.97384 | 27104 ft | 402 kts | 37° |
| 2026-05-07 16:25 | 52.25085 | 8.00209 | 27103 ft | 402 kts | 37° |
| 2026-05-07 16:26 | 52.27267 | 8.02948 | 27101 ft | 402 kts | 37° |
| 2026-05-07 16:26 | 52.29506 | 8.05763 | 27097 ft | 401 kts | 37° |
| 2026-05-07 16:26 | 52.31691 | 8.08514 | 27099 ft | 402 kts | 37° |
| 2026-05-07 16:26 | 52.33183 | 8.10397 | 27096 ft | 402 kts | 37° |
| 2026-05-07 16:27 | 52.36152 | 8.14153 | 27095 ft | 401 kts | 37° |
| 2026-05-07 16:27 | 52.37606 | 8.15993 | 27091 ft | 401 kts | 37° |
| 2026-05-07 16:27 | 52.40564 | 8.19734 | 27094 ft | 401 kts | 37° |
| 2026-05-07 16:27 | 52.42039 | 8.21599 | 27091 ft | 401 kts | 37° |
| 2026-05-07 16:28 | 52.44967 | 8.25304 | 26907 ft | 395 kts | 37° |
| 2026-05-07 16:28 | 52.47117 | 8.28035 | 26634 ft | 388 kts | 37° |
| 2026-05-07 16:28 | 52.49238 | 8.30732 | 26409 ft | 385 kts | 37° |
| 2026-05-07 16:28 | 52.51353 | 8.33427 | 26154 ft | 384 kts | 37° |
| 2026-05-07 16:29 | 52.53458 | 8.36114 | 25891 ft | 382 kts | 37° |
| 2026-05-07 16:29 | 52.55553 | 8.38790 | 25641 ft | 382 kts | 37° |
| 2026-05-07 16:29 | 52.57642 | 8.41463 | 25390 ft | 380 kts | 37° |
| 2026-05-07 16:29 | 52.59720 | 8.44126 | 25136 ft | 377 kts | 37° |
| 2026-05-07 16:30 | 52.61086 | 8.45876 | 24875 ft | 374 kts | 37° |
| 2026-05-07 16:30 | 52.63134 | 8.48500 | 24414 ft | 372 kts | 37° |
| 2026-05-07 16:30 | 52.65202 | 8.51152 | 23944 ft | 371 kts | 37° |
| 2026-05-07 16:30 | 52.67236 | 8.53766 | 23428 ft | 370 kts | 37° |
| 2026-05-07 16:31 | 52.69262 | 8.56373 | 22940 ft | 368 kts | 37° |
| 2026-05-07 16:31 | 52.71275 | 8.58960 | 22481 ft | 365 kts | 37° |
| 2026-05-07 16:31 | 52.73271 | 8.61531 | 22018 ft | 363 kts | 37° |
| 2026-05-07 16:31 | 52.75256 | 8.64096 | 21566 ft | 361 kts | 37° |
| 2026-05-07 16:32 | 52.77229 | 8.66651 | 21102 ft | 360 kts | 37° |
| 2026-05-07 16:32 | 52.79191 | 8.69194 | 20658 ft | 358 kts | 37° |
| 2026-05-07 16:32 | 52.81182 | 8.71781 | 20190 ft | 356 kts | 38° |
| 2026-05-07 16:32 | 52.83088 | 8.74258 | 19767 ft | 355 kts | 37° |
| 2026-05-07 16:33 | 52.85028 | 8.76774 | 19332 ft | 353 kts | 37° |
| 2026-05-07 16:33 | 52.86961 | 8.79286 | 18895 ft | 352 kts | 37° |
| 2026-05-07 16:33 | 52.89013 | 8.81954 | 18436 ft | 351 kts | 38° |
| 2026-05-07 16:33 | 52.90822 | 8.84314 | 17988 ft | 349 kts | 38° |
| 2026-05-07 16:34 | 52.92716 | 8.86791 | 17560 ft | 346 kts | 38° |
| 2026-05-07 16:34 | 52.94601 | 8.89255 | 17144 ft | 343 kts | 37° |
| 2026-05-07 16:34 | 52.96473 | 8.91705 | 16728 ft | 341 kts | 37° |
| 2026-05-07 16:34 | 52.98374 | 8.94196 | 16306 ft | 339 kts | 37° |
| 2026-05-07 16:35 | 53.00099 | 8.96458 | 15928 ft | 337 kts | 38° |
| 2026-05-07 16:35 | 53.02016 | 8.98979 | 15508 ft | 336 kts | 38° |
| 2026-05-07 16:35 | 53.03832 | 9.01373 | 15106 ft | 334 kts | 38° |
| 2026-05-07 16:35 | 53.05651 | 9.03773 | 14707 ft | 333 kts | 37° |
| 2026-05-07 16:36 | 53.07752 | 9.06537 | 14252 ft | 332 kts | 38° |
| 2026-05-07 16:36 | 53.09295 | 9.08565 | 13915 ft | 331 kts | 38° |
| 2026-05-07 16:36 | 53.11355 | 9.11278 | 13415 ft | 329 kts | 38° |
| 2026-05-07 16:36 | 53.12355 | 9.12597 | 13194 ft | 328 kts | 38° |
| 2026-05-07 16:37 | 53.14765 | 9.15784 | 12646 ft | 325 kts | 38° |
| 2026-05-07 16:37 | 53.16554 | 9.18156 | 12237 ft | 322 kts | 38° |
| 2026-05-07 16:37 | 53.18301 | 9.20476 | 11840 ft | 320 kts | 38° |
| 2026-05-07 16:37 | 53.20041 | 9.22785 | 11434 ft | 319 kts | 38° |
| 2026-05-07 16:38 | 53.21769 | 9.25078 | 11196 ft | 311 kts | 38° |
| 2026-05-07 16:38 | 53.23422 | 9.27276 | 11052 ft | 301 kts | 38° |
| 2026-05-07 16:38 | 53.25039 | 9.29433 | 10584 ft | 294 kts | 38° |
| 2026-05-07 16:38 | 53.26635 | 9.31567 | 9972 ft | 292 kts | 38° |
| 2026-05-07 16:39 | 53.28207 | 9.33665 | 9385 ft | 286 kts | 39° |
| 2026-05-07 16:39 | 53.29743 | 9.35717 | 9029 ft | 277 kts | 39° |
| 2026-05-07 16:39 | 53.31225 | 9.37706 | 8656 ft | 275 kts | 39° |
| 2026-05-07 16:39 | 53.32736 | 9.39735 | 8267 ft | 274 kts | 39° |
| 2026-05-07 16:40 | 53.34247 | 9.41757 | 7845 ft | 273 kts | 39° |
| 2026-05-07 16:40 | 53.35659 | 9.43976 | 7391 ft | 267 kts | 50° |
| 2026-05-07 16:40 | 53.36822 | 9.46281 | 6960 ft | 265 kts | 50° |
| 2026-05-07 16:40 | 53.38065 | 9.48752 | 6539 ft | 264 kts | 50° |
| 2026-05-07 16:41 | 53.38788 | 9.50211 | 6264 ft | 264 kts | 51° |
| 2026-05-07 16:41 | 53.40350 | 9.53366 | 5766 ft | 260 kts | 50° |
| 2026-05-07 16:41 | 53.41485 | 9.55621 | 5636 ft | 248 kts | 50° |
| 2026-05-07 16:41 | 53.42639 | 9.57912 | 5528 ft | 237 kts | 50° |
| 2026-05-07 16:42 | 53.43289 | 9.59206 | 5491 ft | 233 kts | 50° |
| 2026-05-07 16:42 | 53.44672 | 9.61960 | 5352 ft | 232 kts | 51° |
| 2026-05-07 16:42 | 53.45714 | 9.64037 | 5083 ft | 228 kts | 51° |
| 2026-05-07 16:42 | 53.46767 | 9.66138 | 4768 ft | 225 kts | 51° |
| 2026-05-07 16:43 | 53.47439 | 9.67479 | 4567 ft | 223 kts | 51° |
| 2026-05-07 16:43 | 53.48386 | 9.69369 | 4275 ft | 221 kts | 51° |
| 2026-05-07 16:43 | 53.49473 | 9.71544 | 3939 ft | 219 kts | 51° |
| 2026-05-07 16:43 | 53.50431 | 9.73459 | 3647 ft | 211 kts | 51° |
| 2026-05-07 16:44 | 53.51340 | 9.75280 | 3370 ft | 204 kts | 51° |
| 2026-05-07 16:44 | 53.52324 | 9.77252 | 3068 ft | 198 kts | 51° |
| 2026-05-07 16:44 | 53.52747 | 9.78099 | 2936 ft | 195 kts | 51° |
| 2026-05-07 16:44 | 53.54068 | 9.80749 | 2559 ft | 184 kts | 51° |
| 2026-05-07 16:45 | 53.54756 | 9.82130 | 2334 ft | 177 kts | 51° |
| 2026-05-07 16:45 | 53.55347 | 9.83317 | 2148 ft | 171 kts | 51° |
| 2026-05-07 16:45 | 53.56405 | 9.85443 | 1812 ft | 152 kts | 52° |
| 2026-05-07 16:45 | 53.57053 | 9.86747 | 1632 ft | 141 kts | 52° |
| 2026-05-07 16:46 | 53.57653 | 9.87956 | 1434 ft | 135 kts | 51° |
| 2026-05-07 16:46 | 53.58250 | 9.89158 | 1254 ft | 132 kts | 52° |
| 2026-05-07 16:46 | 53.58846 | 9.90358 | 1068 ft | 131 kts | 53° |
| 2026-05-07 16:46 | 53.59432 | 9.91537 | 850 ft | 134 kts | 51° |
| 2026-05-07 16:47 | 53.60032 | 9.92749 | 698 ft | 136 kts | 50° |
| 2026-05-07 16:47 | 53.60634 | 9.93952 | 492 ft | 136 kts | 52° |
| 2026-05-07 16:47 | 53.61232 | 9.95166 | 318 ft | 133 kts | 50° |
| 2026-05-07 16:47 | 53.61827 | 9.96372 | 127 ft | 134 kts | 51° |
| 2026-05-07 16:48 | 53.62405 | 9.97544 | 40 ft | 119 kts | 50° |
| 2026-05-07 16:48 | 53.62825 | 9.98398 | 44 ft | 69 kts | 51° |
| 2026-05-07 16:48 | 53.63046 | 9.98849 | 46 ft | 28 kts | 56° |
| 2026-05-07 16:48 | 53.63093 | 9.99090 | 46 ft | 16 kts | 87° |
| 2026-05-07 16:49 | 53.63089 | 9.99208 | 47 ft | 4 kts | 94° |
| 2026-05-07 16:49 | 53.63086 | 9.99253 | 47 ft | 4 kts | 95° |
| 2026-05-07 16:49 | 53.63083 | 9.99335 | 47 ft | 12 kts | 90° |
| 2026-05-07 16:49 | 53.63139 | 9.99499 | 46 ft | 18 kts | 54° |
| 2026-05-07 16:50 | 53.63217 | 9.99668 | 48 ft | 17 kts | 60° |
| 2026-05-07 16:50 | 53.63161 | 9.99814 | 47 ft | 18 kts | 153° |
| 2026-05-07 16:50 | 53.63049 | 9.99912 | 48 ft | 20 kts | 152° |
| 2026-05-07 16:50 | 53.62969 | 9.99984 | 48 ft | 12 kts | 150° |
| 2026-05-07 16:51 | 53.62937 | 10.00074 | 47 ft | 10 kts | 105° |
| 2026-05-07 16:51 | 53.62903 | 10.00182 | 47 ft | 11 kts | 123° |
| 2026-05-07 16:51 | 53.62891 | 10.00214 | 48 ft | 0 kts | 122° |
| 2026-05-07 16:51 | 53.62891 | 10.00216 | 46 ft | 0 kts | 122° |